CES2527 ZYLD-ZBAD
Flight info
| Callsign | CES2527 |
|---|---|
| Flight time | N/A |
| Altitude | 38100 |
| Route | HRB09D HRB G212 BUMDU BUMDU5L |
| Aircraft | A20N/M-SDE2E3FGHIRWXY/LB1 |
Departure
| Time | N/A |
|---|---|
| Airport | Yichun Lindu Airport (ZYLD) |
Arrival
| Time | 2026-04-30 14:58 |
|---|---|
| Airport | Beijing Daxing International Airport (ZBAD) |
| Time | Latitude | Longitude | Altitude | Speed | Heading |
|---|---|---|---|---|---|
| 2026-04-30 14:02 | 43.23543 | 121.57395 | 37996 ft | 437 kts | 234° |
| 2026-04-30 14:02 | 43.21761 | 121.54017 | 37987 ft | 436 kts | 235° |
| 2026-04-30 14:03 | 43.18196 | 121.47265 | 38003 ft | 435 kts | 235° |
| 2026-04-30 14:03 | 43.14632 | 121.40530 | 37986 ft | 436 kts | 235° |
| 2026-04-30 14:04 | 43.11096 | 121.33862 | 37990 ft | 435 kts | 235° |
| 2026-04-30 14:04 | 43.07534 | 121.27159 | 38010 ft | 438 kts | 234° |
| 2026-04-30 14:05 | 43.03948 | 121.20427 | 37991 ft | 439 kts | 234° |
| 2026-04-30 14:05 | 43.00331 | 121.13654 | 38000 ft | 442 kts | 234° |
| 2026-04-30 14:06 | 42.94962 | 121.03630 | 38003 ft | 439 kts | 234° |
| 2026-04-30 14:07 | 42.89541 | 120.93540 | 38008 ft | 440 kts | 234° |
| 2026-04-30 14:08 | 42.84079 | 120.83412 | 38005 ft | 441 kts | 234° |
| 2026-04-30 14:08 | 42.78635 | 120.73345 | 38005 ft | 443 kts | 234° |
| 2026-04-30 14:09 | 42.74988 | 120.66625 | 38006 ft | 441 kts | 234° |
| 2026-04-30 14:10 | 42.69516 | 120.56569 | 38006 ft | 440 kts | 234° |
| 2026-04-30 14:10 | 42.65852 | 120.49848 | 38009 ft | 445 kts | 234° |
| 2026-04-30 14:11 | 42.62198 | 120.43166 | 38001 ft | 443 kts | 234° |
| 2026-04-30 14:11 | 42.58513 | 120.36441 | 38010 ft | 444 kts | 234° |
| 2026-04-30 14:12 | 42.54829 | 120.29735 | 38004 ft | 444 kts | 234° |
| 2026-04-30 14:12 | 42.51126 | 120.23006 | 38012 ft | 445 kts | 234° |
| 2026-04-30 14:13 | 42.47450 | 120.16345 | 38014 ft | 444 kts | 234° |
| 2026-04-30 14:13 | 42.43755 | 120.09659 | 38007 ft | 443 kts | 234° |
| 2026-04-30 14:14 | 42.40060 | 120.02992 | 37986 ft | 443 kts | 233° |
| 2026-04-30 14:14 | 42.36355 | 119.96322 | 38016 ft | 446 kts | 234° |
| 2026-04-30 14:15 | 42.32622 | 119.89615 | 38018 ft | 446 kts | 234° |
| 2026-04-30 14:15 | 42.28912 | 119.82968 | 38011 ft | 447 kts | 234° |
| 2026-04-30 14:16 | 42.25155 | 119.76246 | 38019 ft | 449 kts | 233° |
| 2026-04-30 14:16 | 42.21389 | 119.69526 | 38017 ft | 449 kts | 233° |
| 2026-04-30 14:17 | 42.17624 | 119.62818 | 38020 ft | 449 kts | 233° |
| 2026-04-30 14:17 | 42.13878 | 119.56165 | 38012 ft | 449 kts | 233° |
| 2026-04-30 14:18 | 42.10104 | 119.49475 | 38012 ft | 449 kts | 233° |
| 2026-04-30 14:18 | 42.04430 | 119.39445 | 38017 ft | 449 kts | 233° |
| 2026-04-30 14:19 | 41.98778 | 119.29486 | 38009 ft | 449 kts | 233° |
| 2026-04-30 14:20 | 41.94985 | 119.22822 | 38010 ft | 449 kts | 233° |
| 2026-04-30 14:20 | 41.89287 | 119.12837 | 38005 ft | 449 kts | 233° |
| 2026-04-30 14:21 | 41.85478 | 119.06181 | 38010 ft | 450 kts | 233° |
| 2026-04-30 14:22 | 41.79782 | 118.96256 | 38011 ft | 450 kts | 233° |
| 2026-04-30 14:22 | 41.74038 | 118.86279 | 38023 ft | 452 kts | 233° |
| 2026-04-30 14:23 | 41.66379 | 118.73026 | 38022 ft | 450 kts | 233° |
| 2026-04-30 14:24 | 41.60599 | 118.63070 | 38022 ft | 454 kts | 233° |
| 2026-04-30 14:25 | 41.52875 | 118.49796 | 38031 ft | 453 kts | 233° |
| 2026-04-30 14:26 | 41.47459 | 118.39571 | 38030 ft | 453 kts | 240° |
| 2026-04-30 14:27 | 41.42576 | 118.28817 | 38025 ft | 451 kts | 239° |
| 2026-04-30 14:27 | 41.40941 | 118.25247 | 37834 ft | 452 kts | 240° |
| 2026-04-30 14:27 | 41.39299 | 118.21675 | 37561 ft | 452 kts | 240° |
| 2026-04-30 14:28 | 41.36008 | 118.14539 | 37023 ft | 453 kts | 239° |
| 2026-04-30 14:28 | 41.34377 | 118.11010 | 36771 ft | 454 kts | 239° |
| 2026-04-30 14:28 | 41.32720 | 118.07427 | 36501 ft | 455 kts | 240° |
| 2026-04-30 14:28 | 41.31057 | 118.03837 | 36232 ft | 456 kts | 240° |
| 2026-04-30 14:29 | 41.27719 | 117.96641 | 35711 ft | 458 kts | 240° |
| 2026-04-30 14:29 | 41.24340 | 117.89372 | 34250 ft | 469 kts | 240° |
| 2026-04-30 14:30 | 41.19201 | 117.78358 | 31935 ft | 470 kts | 241° |
| 2026-04-30 14:31 | 41.15745 | 117.70971 | 30323 ft | 473 kts | 241° |
| 2026-04-30 14:31 | 41.12294 | 117.63613 | 29102 ft | 464 kts | 241° |
| 2026-04-30 14:31 | 41.10597 | 117.60003 | 28532 ft | 458 kts | 241° |
| 2026-04-30 14:32 | 41.07260 | 117.52911 | 27406 ft | 449 kts | 241° |
| 2026-04-30 14:32 | 41.05636 | 117.49466 | 26866 ft | 445 kts | 240° |
| 2026-04-30 14:32 | 41.03734 | 117.46249 | 26305 ft | 444 kts | 226° |
| 2026-04-30 14:33 | 41.01326 | 117.43725 | 25771 ft | 443 kts | 212° |
| 2026-04-30 14:33 | 40.95695 | 117.40554 | 24657 ft | 438 kts | 201° |
| 2026-04-30 14:33 | 40.92857 | 117.39116 | 24103 ft | 435 kts | 201° |
| 2026-04-30 14:34 | 40.90033 | 117.37682 | 23540 ft | 434 kts | 201° |
| 2026-04-30 14:34 | 40.87227 | 117.36254 | 22946 ft | 430 kts | 201° |
| 2026-04-30 14:34 | 40.84449 | 117.34840 | 22412 ft | 426 kts | 201° |
| 2026-04-30 14:34 | 40.81735 | 117.33456 | 21870 ft | 422 kts | 201° |
| 2026-04-30 14:35 | 40.76309 | 117.30701 | 20789 ft | 414 kts | 201° |
| 2026-04-30 14:35 | 40.73685 | 117.29179 | 20248 ft | 411 kts | 212° |
| 2026-04-30 14:35 | 40.71478 | 117.26857 | 19722 ft | 405 kts | 229° |
| 2026-04-30 14:36 | 40.69904 | 117.23837 | 19205 ft | 397 kts | 248° |
| 2026-04-30 14:36 | 40.68909 | 117.20477 | 18692 ft | 392 kts | 254° |
| 2026-04-30 14:36 | 40.68077 | 117.17070 | 18108 ft | 391 kts | 255° |
| 2026-04-30 14:36 | 40.67251 | 117.13687 | 17626 ft | 386 kts | 255° |
| 2026-04-30 14:37 | 40.66406 | 117.10399 | 17131 ft | 382 kts | 254° |
| 2026-04-30 14:37 | 40.65525 | 117.07112 | 16623 ft | 379 kts | 253° |
| 2026-04-30 14:37 | 40.64631 | 117.03862 | 16115 ft | 376 kts | 252° |
| 2026-04-30 14:37 | 40.63734 | 117.00640 | 15622 ft | 373 kts | 252° |
| 2026-04-30 14:38 | 40.62839 | 116.97447 | 15121 ft | 370 kts | 252° |
| 2026-04-30 14:38 | 40.61951 | 116.94282 | 14640 ft | 367 kts | 252° |
| 2026-04-30 14:38 | 40.61030 | 116.91155 | 14150 ft | 366 kts | 247° |
| 2026-04-30 14:38 | 40.59718 | 116.88298 | 13658 ft | 366 kts | 234° |
| 2026-04-30 14:39 | 40.57965 | 116.85903 | 13413 ft | 363 kts | 222° |
| 2026-04-30 14:39 | 40.56047 | 116.83764 | 13332 ft | 370 kts | 222° |
| 2026-04-30 14:39 | 40.54093 | 116.81559 | 13181 ft | 369 kts | 223° |
| 2026-04-30 14:40 | 40.50222 | 116.77198 | 12828 ft | 365 kts | 222° |
| 2026-04-30 14:40 | 40.48282 | 116.75040 | 12651 ft | 365 kts | 222° |
| 2026-04-30 14:40 | 40.46357 | 116.72871 | 12467 ft | 364 kts | 223° |
| 2026-04-30 14:40 | 40.44443 | 116.70705 | 12292 ft | 362 kts | 222° |
| 2026-04-30 14:41 | 40.42369 | 116.68925 | 12122 ft | 363 kts | 204° |
| 2026-04-30 14:41 | 40.39917 | 116.68173 | 11943 ft | 365 kts | 182° |
| 2026-04-30 14:41 | 40.37389 | 116.68384 | 11763 ft | 364 kts | 173° |
| 2026-04-30 14:41 | 40.34886 | 116.68810 | 11595 ft | 362 kts | 172° |
| 2026-04-30 14:42 | 40.32401 | 116.69261 | 11416 ft | 361 kts | 172° |
| 2026-04-30 14:42 | 40.29912 | 116.69697 | 11246 ft | 360 kts | 172° |
| 2026-04-30 14:42 | 40.27426 | 116.70111 | 11069 ft | 359 kts | 172° |
| 2026-04-30 14:42 | 40.24954 | 116.70508 | 10887 ft | 357 kts | 173° |
| 2026-04-30 14:43 | 40.22490 | 116.70896 | 10718 ft | 357 kts | 173° |
| 2026-04-30 14:43 | 40.20062 | 116.71276 | 10562 ft | 355 kts | 173° |
| 2026-04-30 14:43 | 40.17637 | 116.71655 | 10477 ft | 346 kts | 173° |
| 2026-04-30 14:43 | 40.15291 | 116.72020 | 10368 ft | 334 kts | 173° |
| 2026-04-30 14:44 | 40.13031 | 116.72372 | 10252 ft | 321 kts | 173° |
| 2026-04-30 14:44 | 40.10855 | 116.72712 | 9884 ft | 311 kts | 173° |
| 2026-04-30 14:44 | 40.08755 | 116.73039 | 9699 ft | 301 kts | 173° |
| 2026-04-30 14:44 | 40.06641 | 116.73370 | 9587 ft | 308 kts | 173° |
| 2026-04-30 14:45 | 40.04531 | 116.73699 | 9446 ft | 303 kts | 173° |
| 2026-04-30 14:45 | 40.02446 | 116.74023 | 9296 ft | 301 kts | 173° |
| 2026-04-30 14:45 | 40.00362 | 116.74349 | 9150 ft | 302 kts | 173° |
| 2026-04-30 14:45 | 39.98309 | 116.74670 | 9006 ft | 300 kts | 173° |
| 2026-04-30 14:46 | 39.96237 | 116.74984 | 8848 ft | 300 kts | 173° |
| 2026-04-30 14:46 | 39.94174 | 116.75301 | 8711 ft | 298 kts | 173° |
| 2026-04-30 14:46 | 39.92114 | 116.75633 | 8500 ft | 298 kts | 173° |
| 2026-04-30 14:46 | 39.90057 | 116.75957 | 7979 ft | 297 kts | 173° |
| 2026-04-30 14:47 | 39.88006 | 116.76271 | 7445 ft | 295 kts | 173° |
| 2026-04-30 14:47 | 39.85975 | 116.76585 | 6920 ft | 292 kts | 173° |
| 2026-04-30 14:47 | 39.83994 | 116.76868 | 6433 ft | 287 kts | 179° |
| 2026-04-30 14:47 | 39.82095 | 116.76396 | 6181 ft | 277 kts | 207° |
| 2026-04-30 14:48 | 39.80577 | 116.74856 | 6061 ft | 280 kts | 234° |
| 2026-04-30 14:48 | 39.79755 | 116.72623 | 5928 ft | 271 kts | 261° |
| 2026-04-30 14:48 | 39.79750 | 116.70201 | 5816 ft | 269 kts | 277° |
| 2026-04-30 14:48 | 39.79922 | 116.67781 | 5685 ft | 268 kts | 276° |
| 2026-04-30 14:49 | 39.80036 | 116.65372 | 5565 ft | 268 kts | 274° |
| 2026-04-30 14:49 | 39.80108 | 116.62941 | 5440 ft | 268 kts | 273° |
| 2026-04-30 14:49 | 39.80159 | 116.60556 | 5307 ft | 267 kts | 273° |
| 2026-04-30 14:49 | 39.80210 | 116.58146 | 5202 ft | 267 kts | 272° |
| 2026-04-30 14:50 | 39.80265 | 116.53376 | 4998 ft | 255 kts | 272° |
| 2026-04-30 14:50 | 39.80290 | 116.51118 | 4912 ft | 245 kts | 273° |
| 2026-04-30 14:51 | 39.80054 | 116.46821 | 4596 ft | 233 kts | 265° |
| 2026-04-30 14:51 | 39.79852 | 116.44733 | 4472 ft | 235 kts | 265° |
| 2026-04-30 14:51 | 39.79461 | 116.40601 | 4217 ft | 231 kts | 265° |
| 2026-04-30 14:52 | 39.79268 | 116.38520 | 4097 ft | 232 kts | 265° |
| 2026-04-30 14:52 | 39.77619 | 116.35110 | 3836 ft | 238 kts | 207° |
| 2026-04-30 14:52 | 39.76013 | 116.34691 | 3677 ft | 238 kts | 177° |
| 2026-04-30 14:53 | 39.72713 | 116.35352 | 3100 ft | 242 kts | 171° |
| 2026-04-30 14:53 | 39.71060 | 116.35713 | 2859 ft | 239 kts | 172° |
| 2026-04-30 14:54 | 39.67814 | 116.36371 | 2421 ft | 236 kts | 174° |
| 2026-04-30 14:54 | 39.64835 | 116.36722 | 1868 ft | 196 kts | 176° |
| 2026-04-30 14:55 | 39.62443 | 116.37043 | 1533 ft | 154 kts | 175° |
| 2026-04-30 14:55 | 39.61471 | 116.37191 | 1483 ft | 125 kts | 174° |
| 2026-04-30 14:55 | 39.59662 | 116.37474 | 1493 ft | 129 kts | 174° |
| 2026-04-30 14:56 | 39.57856 | 116.37765 | 1318 ft | 134 kts | 174° |
| 2026-04-30 14:56 | 39.56056 | 116.38043 | 980 ft | 130 kts | 174° |
| 2026-04-30 14:57 | 39.55140 | 116.38199 | 821 ft | 135 kts | 172° |
| 2026-04-30 14:57 | 39.53298 | 116.38484 | 410 ft | 129 kts | 174° |
| 2026-04-30 14:58 | 39.51489 | 116.38777 | 124 ft | 130 kts | 176° |
| 2026-04-30 14:58 | 39.50658 | 116.38900 | 98 ft | 99 kts | 173° |
| 2026-04-30 14:58 | 39.50011 | 116.39003 | 94 ft | 27 kts | 173° |
| 2026-04-30 14:59 | 39.49537 | 116.39237 | 90 ft | 41 kts | 147° |
| 2026-04-30 15:00 | 39.49143 | 116.39527 | 87 ft | 11 kts | 98° |
| 2026-04-30 15:00 | 39.49173 | 116.39854 | 90 ft | 24 kts | 83° |
| 2026-04-30 15:01 | 39.49218 | 116.40319 | 86 ft | 0 kts | 77° |
| 2026-04-30 15:01 | 39.49226 | 116.40344 | 89 ft | 11 kts | 56° |
| 2026-04-30 15:01 | 39.49618 | 116.40294 | 87 ft | 38 kts | 350° |
| 2026-04-30 15:02 | 39.49883 | 116.40253 | 86 ft | 38 kts | 353° |
| 2026-04-30 15:02 | 39.50022 | 116.40275 | 86 ft | 18 kts | 58° |
| 2026-04-30 15:03 | 39.50245 | 116.40597 | 87 ft | 23 kts | 352° |
| 2026-04-30 15:03 | 39.50522 | 116.40420 | 86 ft | 19 kts | 320° |
| 2026-04-30 15:04 | 39.50626 | 116.40429 | 87 ft | 4 kts | 78° |
| 2026-04-30 15:04 | 39.50629 | 116.40445 | 86 ft | 0 kts | 77° |